N80CF KOPF-KVNY
Flight info
| Callsign | N80CF |
|---|---|
| Flight time | 3h 10m |
| Altitude | 43000 |
| Route | BNGOS4 DOLIE Y280 LEV J86 ELP PHRED THRNE4 |
| Aircraft | C700/M-SBDGHM1RWXY/LB2 |
Departure
| Time | 2026-04-21 08:35 |
|---|---|
| Airport | Miami-Opa Locka Executive Airport (KOPF) |
Arrival
| Time | 2026-04-21 11:45 |
|---|---|
| Airport | Van Nuys Airport (KVNY) |
| Time | Latitude | Longitude | Altitude | Speed | Heading |
|---|---|---|---|---|---|
| 2026-04-21 08:06 | 25.90673 | -80.27587 | 18 ft | 0 kts | 122° |
| 2026-04-21 08:28 | 25.90671 | -80.27584 | 13 ft | 2 kts | 122° |
| 2026-04-21 08:28 | 25.90660 | -80.27562 | 13 ft | 3 kts | 101° |
| 2026-04-21 08:29 | 25.90682 | -80.27546 | 12 ft | 4 kts | 352° |
| 2026-04-21 08:29 | 25.90708 | -80.27580 | 13 ft | 7 kts | 302° |
| 2026-04-21 08:29 | 25.90733 | -80.27625 | 14 ft | 7 kts | 302° |
| 2026-04-21 08:29 | 25.90767 | -80.27665 | 15 ft | 7 kts | 359° |
| 2026-04-21 08:30 | 25.90802 | -80.27671 | 14 ft | 6 kts | 301° |
| 2026-04-21 08:30 | 25.90805 | -80.27747 | 15 ft | 14 kts | 270° |
| 2026-04-21 08:30 | 25.90806 | -80.27854 | 15 ft | 7 kts | 269° |
| 2026-04-21 08:30 | 25.90858 | -80.27904 | 16 ft | 15 kts | 5° |
| 2026-04-21 08:31 | 25.90968 | -80.27902 | 13 ft | 17 kts | 360° |
| 2026-04-21 08:31 | 25.91065 | -80.27901 | 11 ft | 14 kts | 0° |
| 2026-04-21 08:31 | 25.91159 | -80.27909 | 9 ft | 11 kts | 329° |
| 2026-04-21 08:31 | 25.91170 | -80.28003 | 8 ft | 15 kts | 268° |
| 2026-04-21 08:32 | 25.91163 | -80.28144 | 10 ft | 21 kts | 267° |
| 2026-04-21 08:32 | 25.91154 | -80.28321 | 12 ft | 24 kts | 267° |
| 2026-04-21 08:32 | 25.91147 | -80.28505 | 12 ft | 25 kts | 268° |
| 2026-04-21 08:32 | 25.91140 | -80.28620 | 15 ft | 11 kts | 265° |
| 2026-04-21 08:33 | 25.91135 | -80.28708 | 17 ft | 12 kts | 268° |
| 2026-04-21 08:33 | 25.91131 | -80.28803 | 17 ft | 13 kts | 270° |
| 2026-04-21 08:33 | 25.91175 | -80.28840 | 18 ft | 5 kts | 357° |
| 2026-04-21 08:33 | 25.91233 | -80.28841 | 18 ft | 11 kts | 8° |
| 2026-04-21 08:34 | 25.91270 | -80.28791 | 17 ft | 0 kts | 87° |
| 2026-04-21 08:34 | 25.91271 | -80.28741 | 17 ft | 30 kts | 88° |
| 2026-04-21 08:34 | 25.91298 | -80.28194 | 9 ft | 109 kts | 86° |
| 2026-04-21 08:34 | 25.91327 | -80.27148 | 304 ft | 150 kts | 83° |
| 2026-04-21 08:35 | 25.91360 | -80.25895 | 1045 ft | 173 kts | 85° |
| 2026-04-21 08:35 | 25.91431 | -80.24497 | 2041 ft | 189 kts | 83° |
| 2026-04-21 08:35 | 25.91559 | -80.23009 | 3081 ft | 204 kts | 81° |
| 2026-04-21 08:35 | 25.91768 | -80.21361 | 4009 ft | 224 kts | 75° |
| 2026-04-21 08:36 | 25.92646 | -80.19984 | 5167 ft | 229 kts | 30° |
| 2026-04-21 08:36 | 25.94262 | -80.19558 | 6035 ft | 253 kts | 7° |
| 2026-04-21 08:36 | 25.96066 | -80.19443 | 6912 ft | 260 kts | 3° |
| 2026-04-21 08:36 | 25.97889 | -80.19378 | 7436 ft | 268 kts | 2° |
| 2026-04-21 08:37 | 25.99793 | -80.19598 | 7740 ft | 282 kts | 341° |
| 2026-04-21 08:37 | 26.01404 | -80.20813 | 8366 ft | 284 kts | 314° |
| 2026-04-21 08:37 | 26.02642 | -80.22523 | 8982 ft | 285 kts | 307° |
| 2026-04-21 08:37 | 26.03704 | -80.24376 | 9660 ft | 285 kts | 297° |
| 2026-04-21 08:38 | 26.04565 | -80.26386 | 10152 ft | 293 kts | 294° |
| 2026-04-21 08:38 | 26.05476 | -80.28512 | 10288 ft | 316 kts | 297° |
| 2026-04-21 08:38 | 26.06504 | -80.30574 | 11862 ft | 303 kts | 298° |
| 2026-04-21 08:38 | 26.07547 | -80.32664 | 13089 ft | 315 kts | 297° |
| 2026-04-21 08:39 | 26.08577 | -80.34836 | 14307 ft | 319 kts | 296° |
| 2026-04-21 08:39 | 26.09619 | -80.37030 | 15490 ft | 321 kts | 296° |
| 2026-04-21 08:39 | 26.10681 | -80.39227 | 16681 ft | 324 kts | 297° |
| 2026-04-21 08:39 | 26.11752 | -80.41442 | 17851 ft | 326 kts | 296° |
| 2026-04-21 08:40 | 26.12827 | -80.43680 | 18927 ft | 330 kts | 296° |
| 2026-04-21 08:40 | 26.13914 | -80.45947 | 19902 ft | 333 kts | 296° |
| 2026-04-21 08:40 | 26.15011 | -80.48233 | 20894 ft | 337 kts | 296° |
| 2026-04-21 08:40 | 26.16124 | -80.50549 | 21857 ft | 340 kts | 296° |
| 2026-04-21 08:41 | 26.17232 | -80.52858 | 22754 ft | 344 kts | 296° |
| 2026-04-21 08:41 | 26.18366 | -80.55224 | 23599 ft | 349 kts | 296° |
| 2026-04-21 08:41 | 26.19516 | -80.57625 | 24361 ft | 353 kts | 296° |
| 2026-04-21 08:41 | 26.20673 | -80.60039 | 25177 ft | 354 kts | 296° |
| 2026-04-21 08:42 | 26.21836 | -80.62468 | 26007 ft | 357 kts | 296° |
| 2026-04-21 08:42 | 26.23008 | -80.64918 | 26780 ft | 360 kts | 296° |
| 2026-04-21 08:42 | 26.24183 | -80.67376 | 27530 ft | 362 kts | 297° |
| 2026-04-21 08:42 | 26.25378 | -80.69875 | 28280 ft | 365 kts | 297° |
| 2026-04-21 08:43 | 26.26576 | -80.72385 | 29046 ft | 368 kts | 296° |
| 2026-04-21 08:43 | 26.27779 | -80.74904 | 29848 ft | 369 kts | 296° |
| 2026-04-21 08:43 | 26.28991 | -80.77445 | 30535 ft | 372 kts | 296° |
| 2026-04-21 08:43 | 26.30208 | -80.79998 | 31166 ft | 374 kts | 296° |
| 2026-04-21 08:44 | 26.31432 | -80.82567 | 31783 ft | 376 kts | 295° |
| 2026-04-21 08:44 | 26.32663 | -80.85151 | 32373 ft | 378 kts | 295° |
| 2026-04-21 08:44 | 26.33882 | -80.87713 | 32947 ft | 380 kts | 295° |
| 2026-04-21 08:44 | 26.35171 | -80.90305 | 33526 ft | 383 kts | 298° |
| 2026-04-21 08:45 | 26.36696 | -80.92730 | 34325 ft | 381 kts | 303° |
| 2026-04-21 08:45 | 26.38441 | -80.94959 | 34987 ft | 382 kts | 308° |
| 2026-04-21 08:45 | 26.40374 | -80.97008 | 35616 ft | 382 kts | 311° |
| 2026-04-21 08:45 | 26.42306 | -80.99031 | 36214 ft | 380 kts | 310° |
| 2026-04-21 08:46 | 26.44224 | -81.01059 | 36774 ft | 378 kts | 310° |
| 2026-04-21 08:46 | 26.46133 | -81.03068 | 37305 ft | 377 kts | 310° |
| 2026-04-21 08:46 | 26.48039 | -81.05064 | 37819 ft | 375 kts | 310° |
| 2026-04-21 08:46 | 26.49936 | -81.07056 | 38318 ft | 374 kts | 310° |
| 2026-04-21 08:47 | 26.51824 | -81.09044 | 38776 ft | 372 kts | 310° |
| 2026-04-21 08:47 | 26.53709 | -81.11032 | 39125 ft | 372 kts | 310° |
| 2026-04-21 08:47 | 26.55592 | -81.13018 | 39396 ft | 373 kts | 310° |
| 2026-04-21 08:47 | 26.57479 | -81.15008 | 39663 ft | 373 kts | 311° |
| 2026-04-21 08:48 | 26.59373 | -81.17006 | 39925 ft | 374 kts | 311° |
| 2026-04-21 08:48 | 26.61235 | -81.18972 | 40227 ft | 374 kts | 311° |
| 2026-04-21 08:48 | 26.63127 | -81.20970 | 40476 ft | 374 kts | 311° |
| 2026-04-21 08:48 | 26.65020 | -81.22972 | 40709 ft | 375 kts | 311° |
| 2026-04-21 08:49 | 26.66910 | -81.24982 | 40937 ft | 375 kts | 311° |
| 2026-04-21 08:49 | 26.68810 | -81.27005 | 41149 ft | 376 kts | 311° |
| 2026-04-21 08:49 | 26.70706 | -81.29021 | 41354 ft | 376 kts | 311° |
| 2026-04-21 08:49 | 26.72612 | -81.31046 | 41556 ft | 377 kts | 311° |
| 2026-04-21 08:50 | 26.74510 | -81.33065 | 41756 ft | 377 kts | 311° |
| 2026-04-21 08:50 | 26.76413 | -81.35092 | 41950 ft | 378 kts | 311° |
| 2026-04-21 08:50 | 26.78317 | -81.37121 | 42132 ft | 378 kts | 311° |
| 2026-04-21 08:50 | 26.80225 | -81.39154 | 42313 ft | 379 kts | 311° |
| 2026-04-21 08:51 | 26.82132 | -81.41187 | 42487 ft | 379 kts | 311° |
| 2026-04-21 08:51 | 26.84043 | -81.43226 | 42642 ft | 379 kts | 311° |
| 2026-04-21 08:51 | 26.85952 | -81.45263 | 42815 ft | 380 kts | 311° |
| 2026-04-21 08:51 | 26.87863 | -81.47304 | 42970 ft | 380 kts | 311° |
| 2026-04-21 08:52 | 26.89779 | -81.49351 | 43118 ft | 380 kts | 311° |
| 2026-04-21 08:52 | 26.93602 | -81.53439 | 43213 ft | 386 kts | 311° |
| 2026-04-21 08:53 | 26.97528 | -81.57642 | 43220 ft | 393 kts | 311° |
| 2026-04-21 08:53 | 27.01518 | -81.61916 | 43228 ft | 400 kts | 311° |
| 2026-04-21 08:54 | 27.05560 | -81.66249 | 43221 ft | 402 kts | 311° |
| 2026-04-21 08:54 | 27.09592 | -81.70577 | 43218 ft | 400 kts | 311° |
| 2026-04-21 08:55 | 27.13603 | -81.74888 | 43223 ft | 398 kts | 311° |
| 2026-04-21 08:55 | 27.17603 | -81.79191 | 43220 ft | 398 kts | 311° |
| 2026-04-21 08:56 | 27.21609 | -81.83505 | 43224 ft | 399 kts | 311° |
| 2026-04-21 08:56 | 27.25454 | -81.87974 | 43239 ft | 396 kts | 304° |
| 2026-04-21 08:57 | 27.28319 | -81.93161 | 43246 ft | 391 kts | 292° |
| 2026-04-21 08:57 | 27.30057 | -81.98947 | 43242 ft | 390 kts | 281° |
| 2026-04-21 08:58 | 27.31170 | -82.04916 | 43248 ft | 391 kts | 282° |
| 2026-04-21 08:58 | 27.32288 | -82.10861 | 43249 ft | 391 kts | 281° |
| 2026-04-21 08:59 | 27.33402 | -82.16855 | 43241 ft | 392 kts | 281° |
| 2026-04-21 08:59 | 27.34524 | -82.22874 | 43236 ft | 389 kts | 281° |
| 2026-04-21 09:00 | 27.35618 | -82.28779 | 43233 ft | 387 kts | 281° |
| 2026-04-21 09:00 | 27.36715 | -82.34701 | 43234 ft | 387 kts | 281° |
| 2026-04-21 09:01 | 27.37811 | -82.40636 | 43236 ft | 388 kts | 281° |
| 2026-04-21 09:01 | 27.38731 | -82.45632 | 43240 ft | 389 kts | 281° |
| 2026-04-21 09:02 | 27.39821 | -82.51562 | 43246 ft | 390 kts | 281° |
| 2026-04-21 09:02 | 27.40921 | -82.57557 | 43253 ft | 391 kts | 281° |
| 2026-04-21 09:03 | 27.42612 | -82.66560 | 43248 ft | 392 kts | 281° |
| 2026-04-21 09:03 | 27.43729 | -82.72565 | 43255 ft | 393 kts | 281° |
| 2026-04-21 09:04 | 27.44849 | -82.78577 | 43241 ft | 391 kts | 281° |
| 2026-04-21 09:04 | 27.45949 | -82.84508 | 43239 ft | 388 kts | 281° |
| 2026-04-21 09:05 | 27.47050 | -82.90458 | 43237 ft | 388 kts | 281° |
| 2026-04-21 09:05 | 27.48151 | -82.96425 | 43242 ft | 390 kts | 281° |
| 2026-04-21 09:06 | 27.49255 | -83.02415 | 43244 ft | 391 kts | 281° |
| 2026-04-21 09:06 | 27.50359 | -83.08429 | 43256 ft | 392 kts | 281° |
| 2026-04-21 09:07 | 27.51464 | -83.14458 | 43253 ft | 393 kts | 281° |
| 2026-04-21 09:07 | 27.52568 | -83.20501 | 43245 ft | 394 kts | 281° |
| 2026-04-21 09:08 | 27.53670 | -83.26544 | 43249 ft | 394 kts | 281° |
| 2026-04-21 09:08 | 27.54769 | -83.32589 | 43243 ft | 394 kts | 281° |
| 2026-04-21 09:09 | 27.55868 | -83.38653 | 43247 ft | 395 kts | 281° |
| 2026-04-21 09:09 | 27.56957 | -83.44675 | 43251 ft | 395 kts | 281° |
| 2026-04-21 09:10 | 27.58049 | -83.50727 | 43249 ft | 392 kts | 281° |
| 2026-04-21 09:10 | 27.59131 | -83.56739 | 43246 ft | 391 kts | 281° |
| 2026-04-21 09:11 | 27.60211 | -83.62764 | 43245 ft | 392 kts | 281° |
| 2026-04-21 09:11 | 27.61295 | -83.68815 | 43249 ft | 394 kts | 281° |
| 2026-04-21 09:12 | 27.62372 | -83.74853 | 43254 ft | 396 kts | 281° |
| 2026-04-21 09:12 | 27.63456 | -83.80936 | 43254 ft | 396 kts | 281° |
| 2026-04-21 09:13 | 27.65096 | -83.90182 | 43251 ft | 392 kts | 281° |
| 2026-04-21 09:13 | 27.67229 | -84.02261 | 43249 ft | 394 kts | 281° |
| 2026-04-21 09:14 | 27.69374 | -84.14466 | 43249 ft | 397 kts | 281° |
| 2026-04-21 09:14 | 27.71500 | -84.26636 | 43250 ft | 395 kts | 281° |
| 2026-04-21 09:15 | 27.73607 | -84.38761 | 43239 ft | 393 kts | 280° |
| 2026-04-21 09:15 | 27.75698 | -84.50860 | 43247 ft | 394 kts | 280° |
| 2026-04-21 09:16 | 27.77793 | -84.63043 | 43250 ft | 397 kts | 280° |
| 2026-04-21 09:16 | 27.79893 | -84.75330 | 43251 ft | 399 kts | 280° |
| 2026-04-21 09:17 | 27.81964 | -84.87508 | 43245 ft | 396 kts | 280° |
| 2026-04-21 09:17 | 27.84027 | -84.99693 | 43241 ft | 394 kts | 280° |
| 2026-04-21 09:18 | 27.86074 | -85.11852 | 43249 ft | 397 kts | 280° |
| 2026-04-21 09:18 | 27.88139 | -85.24189 | 43254 ft | 399 kts | 280° |
| 2026-04-21 09:19 | 27.91535 | -85.36089 | 43254 ft | 396 kts | 287° |
| 2026-04-21 09:19 | 27.95099 | -85.47883 | 43241 ft | 399 kts | 287° |
| 2026-04-21 09:20 | 27.98707 | -85.59858 | 43250 ft | 402 kts | 287° |
| 2026-04-21 09:20 | 28.02294 | -85.71800 | 43252 ft | 399 kts | 287° |
| 2026-04-21 09:21 | 28.05839 | -85.83648 | 43244 ft | 397 kts | 287° |
| 2026-04-21 09:21 | 28.09380 | -85.95525 | 43244 ft | 399 kts | 287° |
| 2026-04-21 09:22 | 28.12934 | -86.07485 | 43245 ft | 402 kts | 287° |
| 2026-04-21 09:22 | 28.16488 | -86.19488 | 43252 ft | 401 kts | 287° |
| 2026-04-21 09:23 | 28.19992 | -86.31367 | 43247 ft | 398 kts | 287° |
| 2026-04-21 09:23 | 28.23493 | -86.43280 | 43242 ft | 398 kts | 287° |
| 2026-04-21 09:24 | 28.26997 | -86.55243 | 43250 ft | 401 kts | 287° |
| 2026-04-21 09:24 | 28.30511 | -86.67285 | 43244 ft | 403 kts | 286° |
| 2026-04-21 09:25 | 28.34052 | -86.79378 | 43253 ft | 403 kts | 287° |
| 2026-04-21 09:25 | 28.37554 | -86.91363 | 43239 ft | 397 kts | 286° |
| 2026-04-21 09:26 | 28.41043 | -87.03347 | 43258 ft | 402 kts | 286° |
| 2026-04-21 09:26 | 28.44536 | -87.15385 | 43256 ft | 403 kts | 286° |
| 2026-04-21 09:27 | 28.48021 | -87.27442 | 43253 ft | 400 kts | 286° |
| 2026-04-21 09:27 | 28.51478 | -87.39446 | 43245 ft | 401 kts | 286° |
| 2026-04-21 09:28 | 28.54965 | -87.51598 | 43252 ft | 405 kts | 286° |
| 2026-04-21 09:28 | 28.58441 | -87.63757 | 43250 ft | 403 kts | 286° |
| 2026-04-21 09:29 | 28.61888 | -87.75862 | 43243 ft | 400 kts | 286° |
| 2026-04-21 09:29 | 28.65309 | -87.87922 | 43248 ft | 401 kts | 286° |
| 2026-04-21 09:30 | 28.68713 | -87.99965 | 43255 ft | 402 kts | 286° |
| 2026-04-21 09:30 | 28.72136 | -88.12126 | 43261 ft | 403 kts | 286° |
| 2026-04-21 09:31 | 28.75553 | -88.24310 | 43259 ft | 403 kts | 286° |
| 2026-04-21 09:31 | 28.78957 | -88.36494 | 43262 ft | 403 kts | 285° |
| 2026-04-21 09:32 | 28.82353 | -88.48699 | 43259 ft | 403 kts | 285° |
| 2026-04-21 09:32 | 28.85733 | -88.60894 | 43257 ft | 403 kts | 285° |
| 2026-04-21 09:33 | 28.88912 | -88.73144 | 43263 ft | 402 kts | 281° |
| 2026-04-21 09:33 | 28.91558 | -88.85448 | 43268 ft | 402 kts | 282° |
| 2026-04-21 09:34 | 28.94197 | -88.97864 | 43264 ft | 402 kts | 282° |
| 2026-04-21 09:34 | 28.96818 | -89.10260 | 43255 ft | 402 kts | 282° |
| 2026-04-21 09:35 | 28.99424 | -89.22647 | 43255 ft | 400 kts | 282° |
| 2026-04-21 09:35 | 29.02003 | -89.34967 | 43252 ft | 398 kts | 282° |
| 2026-04-21 09:36 | 29.04568 | -89.47281 | 43247 ft | 399 kts | 282° |
| 2026-04-21 09:36 | 29.07135 | -89.59662 | 43252 ft | 401 kts | 282° |
| 2026-04-21 09:37 | 29.09704 | -89.72111 | 43253 ft | 403 kts | 282° |
| 2026-04-21 09:37 | 29.12243 | -89.84481 | 43250 ft | 400 kts | 282° |
| 2026-04-21 09:38 | 29.14770 | -89.96850 | 43250 ft | 398 kts | 282° |
| 2026-04-21 09:38 | 29.17278 | -90.09186 | 43251 ft | 398 kts | 281° |
| 2026-04-21 09:39 | 29.19430 | -90.21646 | 43257 ft | 399 kts | 280° |
| 2026-04-21 09:39 | 29.21538 | -90.34145 | 43263 ft | 400 kts | 279° |
| 2026-04-21 09:40 | 29.23643 | -90.46700 | 43261 ft | 401 kts | 279° |
| 2026-04-21 09:40 | 29.25737 | -90.59268 | 43258 ft | 401 kts | 279° |
| 2026-04-21 09:41 | 29.27792 | -90.71670 | 43253 ft | 397 kts | 279° |
| 2026-04-21 09:41 | 29.29833 | -90.84066 | 43254 ft | 396 kts | 279° |
| 2026-04-21 09:42 | 29.31860 | -90.96455 | 43254 ft | 395 kts | 279° |
| 2026-04-21 09:42 | 29.33878 | -91.08862 | 43256 ft | 395 kts | 279° |
| 2026-04-21 09:43 | 29.35880 | -91.21244 | 43245 ft | 395 kts | 279° |
| 2026-04-21 09:43 | 29.37868 | -91.33616 | 43254 ft | 395 kts | 279° |
| 2026-04-21 09:44 | 29.39858 | -91.46077 | 43259 ft | 398 kts | 279° |
| 2026-04-21 09:44 | 29.41844 | -91.58591 | 43261 ft | 398 kts | 279° |
| 2026-04-21 09:45 | 29.43801 | -91.70998 | 43251 ft | 393 kts | 279° |
| 2026-04-21 09:45 | 29.45740 | -91.83365 | 43241 ft | 395 kts | 279° |
| 2026-04-21 09:46 | 29.47676 | -91.95796 | 43242 ft | 397 kts | 278° |
| 2026-04-21 09:46 | 29.49284 | -92.06186 | 43243 ft | 398 kts | 278° |
| 2026-04-21 09:47 | 29.51523 | -92.20733 | 43234 ft | 396 kts | 278° |
| 2026-04-21 09:47 | 29.53421 | -92.33161 | 43230 ft | 395 kts | 278° |
| 2026-04-21 09:48 | 29.55005 | -92.43589 | 43233 ft | 396 kts | 278° |
| 2026-04-21 09:48 | 29.56890 | -92.56074 | 43230 ft | 397 kts | 278° |
| 2026-04-21 09:49 | 29.58757 | -92.68527 | 43239 ft | 398 kts | 278° |
| 2026-04-21 09:49 | 29.60631 | -92.81107 | 43244 ft | 400 kts | 278° |
| 2026-04-21 09:50 | 29.62195 | -92.91668 | 43243 ft | 401 kts | 278° |
| 2026-04-21 09:50 | 29.64349 | -93.06324 | 43242 ft | 398 kts | 278° |
| 2026-04-21 09:51 | 29.66174 | -93.18837 | 43235 ft | 396 kts | 278° |
| 2026-04-21 09:51 | 29.67988 | -93.31356 | 43240 ft | 398 kts | 278° |
| 2026-04-21 09:52 | 29.69788 | -93.43866 | 43245 ft | 400 kts | 278° |
| 2026-04-21 09:52 | 29.71596 | -93.56522 | 43241 ft | 400 kts | 278° |
| 2026-04-21 09:53 | 29.73382 | -93.69105 | 43236 ft | 397 kts | 278° |
| 2026-04-21 09:53 | 29.75147 | -93.81633 | 43242 ft | 396 kts | 278° |
| 2026-04-21 09:54 | 29.76917 | -93.94283 | 43288 ft | 403 kts | 278° |
| 2026-04-21 09:54 | 29.78678 | -94.06958 | 43257 ft | 398 kts | 278° |
| 2026-04-21 09:55 | 29.80412 | -94.19539 | 43254 ft | 399 kts | 278° |
| 2026-04-21 09:55 | 29.82150 | -94.32227 | 43264 ft | 402 kts | 278° |
| 2026-04-21 09:56 | 29.83872 | -94.44902 | 43263 ft | 402 kts | 278° |
| 2026-04-21 09:56 | 29.85587 | -94.57614 | 43263 ft | 400 kts | 278° |
| 2026-04-21 09:57 | 29.87277 | -94.70243 | 43255 ft | 397 kts | 278° |
| 2026-04-21 09:57 | 29.88951 | -94.82843 | 43265 ft | 399 kts | 277° |
| 2026-04-21 09:58 | 29.90624 | -94.95531 | 43276 ft | 401 kts | 277° |
| 2026-04-21 09:58 | 29.92274 | -95.08141 | 43255 ft | 395 kts | 277° |
| 2026-04-21 09:59 | 29.93891 | -95.20590 | 43251 ft | 395 kts | 277° |
| 2026-04-21 09:59 | 29.95509 | -95.33139 | 43255 ft | 396 kts | 277° |
| 2026-04-21 10:00 | 29.97465 | -95.45592 | 43257 ft | 393 kts | 279° |
| 2026-04-21 10:00 | 29.99440 | -95.57931 | 43207 ft | 391 kts | 279° |
| 2026-04-21 10:01 | 30.01414 | -95.70348 | 43217 ft | 396 kts | 279° |
| 2026-04-21 10:01 | 30.03378 | -95.82779 | 43180 ft | 390 kts | 279° |
| 2026-04-21 10:02 | 30.06266 | -96.01200 | 43123 ft | 395 kts | 279° |
| 2026-04-21 10:03 | 30.08201 | -96.13649 | 43034 ft | 390 kts | 278° |
| 2026-04-21 10:03 | 30.10107 | -96.25984 | 43085 ft | 391 kts | 278° |
| 2026-04-21 10:04 | 30.12013 | -96.38396 | 43080 ft | 393 kts | 278° |
| 2026-04-21 10:04 | 30.12963 | -96.44618 | 43196 ft | 394 kts | 278° |
| 2026-04-21 10:04 | 30.13913 | -96.50852 | 43194 ft | 393 kts | 278° |
| 2026-04-21 10:05 | 30.15785 | -96.63213 | 43213 ft | 389 kts | 278° |
| 2026-04-21 10:05 | 30.17626 | -96.75446 | 43222 ft | 389 kts | 278° |
| 2026-04-21 10:06 | 30.19468 | -96.87767 | 43248 ft | 391 kts | 278° |
| 2026-04-21 10:06 | 30.21302 | -97.00105 | 43261 ft | 388 kts | 278° |
| 2026-04-21 10:07 | 30.23114 | -97.12389 | 43241 ft | 388 kts | 278° |
| 2026-04-21 10:07 | 30.24923 | -97.24741 | 43209 ft | 390 kts | 278° |
| 2026-04-21 10:08 | 30.26724 | -97.37112 | 43219 ft | 391 kts | 278° |
| 2026-04-21 10:08 | 30.28522 | -97.49553 | 43207 ft | 390 kts | 278° |
| 2026-04-21 10:09 | 30.30286 | -97.61847 | 43191 ft | 388 kts | 277° |
| 2026-04-21 10:09 | 30.32067 | -97.74336 | 43206 ft | 395 kts | 277° |
| 2026-04-21 10:10 | 30.33835 | -97.86829 | 43236 ft | 392 kts | 277° |
| 2026-04-21 10:10 | 30.35580 | -97.99247 | 43225 ft | 389 kts | 277° |
| 2026-04-21 10:11 | 30.37304 | -98.11603 | 43227 ft | 390 kts | 277° |
| 2026-04-21 10:11 | 30.39015 | -98.23952 | 43209 ft | 391 kts | 277° |
| 2026-04-21 10:12 | 30.40732 | -98.36432 | 43207 ft | 394 kts | 277° |
| 2026-04-21 10:12 | 30.42437 | -98.48923 | 43163 ft | 390 kts | 277° |
| 2026-04-21 10:13 | 30.44116 | -98.61312 | 43175 ft | 390 kts | 277° |
| 2026-04-21 10:13 | 30.45798 | -98.73806 | 43173 ft | 392 kts | 277° |
| 2026-04-21 10:14 | 30.47479 | -98.86389 | 43169 ft | 397 kts | 277° |
| 2026-04-21 10:14 | 30.49153 | -98.99024 | 43174 ft | 396 kts | 277° |
| 2026-04-21 10:15 | 30.50810 | -99.11620 | 43159 ft | 395 kts | 277° |
| 2026-04-21 10:15 | 30.52444 | -99.24139 | 43164 ft | 395 kts | 277° |
| 2026-04-21 10:16 | 30.54083 | -99.36789 | 43165 ft | 397 kts | 277° |
| 2026-04-21 10:16 | 30.55712 | -99.49467 | 43183 ft | 398 kts | 277° |
| 2026-04-21 10:17 | 30.57335 | -99.62196 | 43195 ft | 398 kts | 277° |
| 2026-04-21 10:17 | 30.58938 | -99.74871 | 43201 ft | 395 kts | 277° |
| 2026-04-21 10:18 | 30.60516 | -99.87481 | 43187 ft | 394 kts | 277° |
| 2026-04-21 10:18 | 30.62073 | -100.00070 | 43180 ft | 395 kts | 277° |
| 2026-04-21 10:19 | 30.63628 | -100.12745 | 43167 ft | 398 kts | 277° |
| 2026-04-21 10:19 | 30.65180 | -100.25505 | 43159 ft | 398 kts | 277° |
| 2026-04-21 10:20 | 30.66704 | -100.38133 | 43186 ft | 395 kts | 277° |
| 2026-04-21 10:20 | 30.68213 | -100.50751 | 43199 ft | 393 kts | 276° |
| 2026-04-21 10:21 | 30.69709 | -100.63363 | 43209 ft | 395 kts | 276° |
| 2026-04-21 10:21 | 30.71204 | -100.76071 | 43204 ft | 398 kts | 276° |
| 2026-04-21 10:22 | 30.72693 | -100.88835 | 43192 ft | 398 kts | 276° |
| 2026-04-21 10:22 | 30.74162 | -101.01532 | 43190 ft | 395 kts | 276° |
| 2026-04-21 10:23 | 30.75611 | -101.14171 | 43195 ft | 393 kts | 276° |
| 2026-04-21 10:23 | 30.77046 | -101.26798 | 43148 ft | 394 kts | 276° |
| 2026-04-21 10:24 | 30.78467 | -101.39416 | 43142 ft | 393 kts | 276° |
| 2026-04-21 10:24 | 30.79874 | -101.52018 | 43136 ft | 393 kts | 276° |
| 2026-04-21 10:25 | 30.81266 | -101.64601 | 43137 ft | 395 kts | 276° |
| 2026-04-21 10:25 | 30.82661 | -101.77329 | 43129 ft | 398 kts | 276° |
| 2026-04-21 10:26 | 30.84055 | -101.90155 | 43125 ft | 397 kts | 276° |
| 2026-04-21 10:26 | 30.85422 | -102.02855 | 43115 ft | 394 kts | 276° |
| 2026-04-21 10:27 | 30.86768 | -102.15487 | 43113 ft | 398 kts | 276° |
| 2026-04-21 10:27 | 30.88123 | -102.28314 | 43111 ft | 399 kts | 276° |
| 2026-04-21 10:28 | 30.89460 | -102.41102 | 43096 ft | 396 kts | 276° |
| 2026-04-21 10:28 | 30.90782 | -102.53862 | 43099 ft | 397 kts | 276° |
| 2026-04-21 10:29 | 30.92098 | -102.66697 | 43133 ft | 400 kts | 276° |
| 2026-04-21 10:29 | 30.93406 | -102.79567 | 43160 ft | 401 kts | 276° |
| 2026-04-21 10:30 | 30.94704 | -102.92484 | 43072 ft | 400 kts | 276° |
| 2026-04-21 10:30 | 30.97304 | -103.05077 | 43078 ft | 401 kts | 285° |
| 2026-04-21 10:31 | 31.00701 | -103.17465 | 43076 ft | 401 kts | 285° |
| 2026-04-21 10:31 | 31.04097 | -103.29868 | 43082 ft | 401 kts | 285° |
| 2026-04-21 10:32 | 31.07482 | -103.42270 | 43099 ft | 402 kts | 285° |
| 2026-04-21 10:32 | 31.10871 | -103.54739 | 43115 ft | 404 kts | 285° |
| 2026-04-21 10:33 | 31.14242 | -103.67194 | 43118 ft | 406 kts | 285° |
| 2026-04-21 10:33 | 31.17660 | -103.79874 | 43110 ft | 407 kts | 285° |
| 2026-04-21 10:34 | 31.21014 | -103.92373 | 43083 ft | 404 kts | 285° |
| 2026-04-21 10:34 | 31.24358 | -104.04891 | 43090 ft | 403 kts | 285° |
| 2026-04-21 10:35 | 31.27699 | -104.17448 | 43098 ft | 405 kts | 285° |
| 2026-04-21 10:35 | 31.31051 | -104.30102 | 43094 ft | 409 kts | 285° |
| 2026-04-21 10:36 | 31.34391 | -104.42769 | 43093 ft | 408 kts | 285° |
| 2026-04-21 10:36 | 31.37716 | -104.55434 | 43079 ft | 406 kts | 285° |
| 2026-04-21 10:37 | 31.40458 | -104.65921 | 43071 ft | 405 kts | 285° |
| 2026-04-21 10:37 | 31.43736 | -104.78509 | 43066 ft | 404 kts | 285° |
| 2026-04-21 10:38 | 31.47017 | -104.91165 | 43091 ft | 406 kts | 284° |
| 2026-04-21 10:38 | 31.50297 | -105.03873 | 43064 ft | 408 kts | 285° |
| 2026-04-21 10:39 | 31.53577 | -105.16640 | 43055 ft | 409 kts | 284° |
| 2026-04-21 10:39 | 31.56850 | -105.29441 | 43052 ft | 409 kts | 284° |
| 2026-04-21 10:40 | 31.60123 | -105.42301 | 43045 ft | 413 kts | 284° |
| 2026-04-21 10:40 | 31.63377 | -105.55144 | 43041 ft | 413 kts | 284° |
| 2026-04-21 10:41 | 31.66628 | -105.68040 | 43027 ft | 411 kts | 284° |
| 2026-04-21 10:41 | 31.69848 | -105.80872 | 43013 ft | 409 kts | 284° |
| 2026-04-21 10:42 | 31.73049 | -105.93688 | 43001 ft | 410 kts | 284° |
| 2026-04-21 10:42 | 31.76265 | -106.06623 | 43047 ft | 414 kts | 284° |
| 2026-04-21 10:43 | 31.79478 | -106.19608 | 43099 ft | 412 kts | 283° |
| 2026-04-21 10:43 | 31.82737 | -106.32470 | 43141 ft | 409 kts | 285° |
| 2026-04-21 10:44 | 31.86160 | -106.45192 | 43144 ft | 412 kts | 285° |
| 2026-04-21 10:44 | 31.89620 | -106.58121 | 43143 ft | 416 kts | 284° |
| 2026-04-21 10:45 | 31.93060 | -106.71038 | 43147 ft | 411 kts | 284° |
| 2026-04-21 10:45 | 31.96459 | -106.83863 | 43109 ft | 411 kts | 284° |
| 2026-04-21 10:46 | 31.99864 | -106.96771 | 43022 ft | 413 kts | 284° |
| 2026-04-21 10:46 | 32.03275 | -107.09758 | 43027 ft | 416 kts | 284° |
| 2026-04-21 10:47 | 32.06680 | -107.22783 | 42999 ft | 415 kts | 284° |
| 2026-04-21 10:47 | 32.10061 | -107.35779 | 42995 ft | 413 kts | 284° |
| 2026-04-21 10:48 | 32.13388 | -107.48628 | 43068 ft | 411 kts | 283° |
| 2026-04-21 10:48 | 32.16716 | -107.61538 | 43134 ft | 412 kts | 283° |
| 2026-04-21 10:49 | 32.20055 | -107.74551 | 43173 ft | 416 kts | 283° |
| 2026-04-21 10:49 | 32.23396 | -107.87635 | 42993 ft | 415 kts | 283° |
| 2026-04-21 10:50 | 32.26716 | -108.00699 | 42985 ft | 414 kts | 283° |
| 2026-04-21 10:50 | 32.30005 | -108.13703 | 42983 ft | 412 kts | 283° |
| 2026-04-21 10:51 | 32.33253 | -108.26608 | 42989 ft | 411 kts | 283° |
| 2026-04-21 10:51 | 32.36523 | -108.39663 | 43003 ft | 417 kts | 283° |
| 2026-04-21 10:52 | 32.39806 | -108.52831 | 42981 ft | 416 kts | 283° |
| 2026-04-21 10:52 | 32.43060 | -108.65947 | 42966 ft | 414 kts | 283° |
| 2026-04-21 10:53 | 32.46284 | -108.79007 | 42977 ft | 412 kts | 282° |
| 2026-04-21 10:53 | 32.49483 | -108.92027 | 42973 ft | 417 kts | 282° |
| 2026-04-21 10:54 | 32.52719 | -109.05264 | 42951 ft | 418 kts | 282° |
| 2026-04-21 10:54 | 32.55929 | -109.18464 | 42948 ft | 416 kts | 282° |
| 2026-04-21 10:55 | 32.59115 | -109.31629 | 42947 ft | 416 kts | 282° |
| 2026-04-21 10:55 | 32.62290 | -109.44812 | 42978 ft | 416 kts | 282° |
| 2026-04-21 10:56 | 32.65463 | -109.58058 | 43012 ft | 419 kts | 282° |
| 2026-04-21 10:56 | 32.68638 | -109.71382 | 42954 ft | 420 kts | 282° |
| 2026-04-21 10:57 | 32.71811 | -109.84752 | 42960 ft | 417 kts | 282° |
| 2026-04-21 10:57 | 32.74923 | -109.97964 | 42983 ft | 416 kts | 282° |
| 2026-04-21 10:58 | 32.78021 | -110.11170 | 42981 ft | 420 kts | 282° |
| 2026-04-21 10:58 | 32.81151 | -110.24561 | 42998 ft | 420 kts | 281° |
| 2026-04-21 10:59 | 32.84257 | -110.37931 | 42994 ft | 417 kts | 281° |
| 2026-04-21 10:59 | 32.87331 | -110.51236 | 43009 ft | 419 kts | 281° |
| 2026-04-21 11:00 | 32.90421 | -110.64679 | 43007 ft | 422 kts | 281° |
| 2026-04-21 11:00 | 32.93495 | -110.78132 | 43012 ft | 419 kts | 281° |
| 2026-04-21 11:01 | 32.96538 | -110.91521 | 42987 ft | 420 kts | 281° |
| 2026-04-21 11:01 | 32.99591 | -111.05023 | 43009 ft | 424 kts | 281° |
| 2026-04-21 11:02 | 33.08025 | -111.42709 | 42974 ft | 419 kts | 281° |
| 2026-04-21 11:02 | 33.13993 | -111.69736 | 43013 ft | 423 kts | 281° |
| 2026-04-21 11:03 | 33.19926 | -111.96902 | 43002 ft | 420 kts | 280° |
| 2026-04-21 11:03 | 33.25774 | -112.23991 | 42952 ft | 424 kts | 280° |
| 2026-04-21 11:04 | 33.31610 | -112.51330 | 42985 ft | 421 kts | 280° |
| 2026-04-21 11:04 | 33.37343 | -112.78506 | 43024 ft | 422 kts | 279° |
| 2026-04-21 11:05 | 33.43049 | -113.05872 | 42956 ft | 424 kts | 279° |
| 2026-04-21 11:05 | 33.48699 | -113.33291 | 42959 ft | 422 kts | 279° |
| 2026-04-21 11:06 | 33.54251 | -113.60563 | 42950 ft | 421 kts | 279° |
| 2026-04-21 11:06 | 33.59714 | -113.87720 | 42947 ft | 421 kts | 279° |
| 2026-04-21 11:07 | 33.64881 | -114.15017 | 42940 ft | 414 kts | 272° |
| 2026-04-21 11:07 | 33.66037 | -114.26641 | 42943 ft | 415 kts | 273° |
| 2026-04-21 11:08 | 33.66693 | -114.33539 | 42941 ft | 418 kts | 273° |
| 2026-04-21 11:08 | 33.67391 | -114.40492 | 42942 ft | 420 kts | 273° |
| 2026-04-21 11:09 | 33.68062 | -114.47414 | 42943 ft | 415 kts | 273° |
| 2026-04-21 11:09 | 33.68731 | -114.54277 | 42758 ft | 417 kts | 273° |
| 2026-04-21 11:10 | 33.69067 | -114.57775 | 42217 ft | 427 kts | 273° |
| 2026-04-21 11:10 | 33.69409 | -114.61324 | 41646 ft | 428 kts | 273° |
| 2026-04-21 11:10 | 33.69772 | -114.65058 | 41055 ft | 426 kts | 274° |
| 2026-04-21 11:10 | 33.70437 | -114.72011 | 39946 ft | 423 kts | 274° |
| 2026-04-21 11:11 | 33.71103 | -114.79014 | 38843 ft | 422 kts | 274° |
| 2026-04-21 11:11 | 33.71768 | -114.86033 | 37673 ft | 424 kts | 274° |
| 2026-04-21 11:11 | 33.72435 | -114.93141 | 36547 ft | 431 kts | 274° |
| 2026-04-21 11:11 | 33.73109 | -115.00349 | 35396 ft | 436 kts | 274° |
| 2026-04-21 11:12 | 33.73785 | -115.07631 | 34244 ft | 440 kts | 274° |
| 2026-04-21 11:12 | 33.74461 | -115.14965 | 33044 ft | 442 kts | 274° |
| 2026-04-21 11:12 | 33.75167 | -115.22314 | 31867 ft | 443 kts | 275° |
| 2026-04-21 11:12 | 33.75947 | -115.29683 | 30709 ft | 446 kts | 275° |
| 2026-04-21 11:13 | 33.76681 | -115.37110 | 29480 ft | 449 kts | 274° |
| 2026-04-21 11:13 | 33.77426 | -115.44369 | 28943 ft | 436 kts | 275° |
| 2026-04-21 11:13 | 33.78201 | -115.51825 | 28373 ft | 446 kts | 274° |
| 2026-04-21 11:13 | 33.78944 | -115.59029 | 27483 ft | 436 kts | 274° |
| 2026-04-21 11:14 | 33.79657 | -115.66229 | 26603 ft | 431 kts | 273° |
| 2026-04-21 11:14 | 33.80339 | -115.73328 | 25724 ft | 422 kts | 274° |
| 2026-04-21 11:14 | 33.81018 | -115.80314 | 24871 ft | 419 kts | 273° |
| 2026-04-21 11:14 | 33.81703 | -115.87249 | 24021 ft | 416 kts | 274° |
| 2026-04-21 11:15 | 33.82266 | -115.92648 | 23334 ft | 411 kts | 274° |
| 2026-04-21 11:15 | 33.82602 | -115.96041 | 22895 ft | 407 kts | 274° |
| 2026-04-21 11:15 | 33.82940 | -115.99425 | 22482 ft | 406 kts | 274° |
| 2026-04-21 11:15 | 33.83278 | -116.02791 | 22076 ft | 407 kts | 274° |
| 2026-04-21 11:16 | 33.83616 | -116.06162 | 21658 ft | 404 kts | 274° |
| 2026-04-21 11:16 | 33.83950 | -116.09506 | 21246 ft | 401 kts | 274° |
| 2026-04-21 11:16 | 33.84268 | -116.12829 | 20840 ft | 398 kts | 272° |
| 2026-04-21 11:16 | 33.84510 | -116.16087 | 20438 ft | 395 kts | 271° |
| 2026-04-21 11:17 | 33.84765 | -116.19373 | 20030 ft | 394 kts | 272° |
| 2026-04-21 11:17 | 33.85026 | -116.22650 | 19630 ft | 392 kts | 271° |
| 2026-04-21 11:17 | 33.85276 | -116.25909 | 19238 ft | 391 kts | 271° |
| 2026-04-21 11:17 | 33.85521 | -116.29163 | 18840 ft | 391 kts | 271° |
| 2026-04-21 11:18 | 33.85768 | -116.32427 | 18436 ft | 391 kts | 271° |
| 2026-04-21 11:18 | 33.86016 | -116.35671 | 18019 ft | 388 kts | 271° |
| 2026-04-21 11:18 | 33.86330 | -116.38878 | 17613 ft | 385 kts | 273° |
| 2026-04-21 11:18 | 33.86635 | -116.42071 | 17219 ft | 381 kts | 272° |
| 2026-04-21 11:19 | 33.86926 | -116.45231 | 16831 ft | 379 kts | 272° |
| 2026-04-21 11:19 | 33.87223 | -116.48377 | 16444 ft | 376 kts | 272° |
| 2026-04-21 11:19 | 33.87523 | -116.51490 | 16060 ft | 374 kts | 272° |
| 2026-04-21 11:19 | 33.87941 | -116.54569 | 15802 ft | 371 kts | 277° |
| 2026-04-21 11:20 | 33.88437 | -116.57622 | 15554 ft | 374 kts | 276° |
| 2026-04-21 11:20 | 33.88915 | -116.60689 | 15288 ft | 373 kts | 276° |
| 2026-04-21 11:20 | 33.89392 | -116.63748 | 15039 ft | 371 kts | 276° |
| 2026-04-21 11:20 | 33.89875 | -116.66791 | 14904 ft | 368 kts | 276° |
| 2026-04-21 11:21 | 33.90353 | -116.69782 | 14897 ft | 371 kts | 277° |
| 2026-04-21 11:21 | 33.90839 | -116.72851 | 14907 ft | 371 kts | 276° |
| 2026-04-21 11:21 | 33.91322 | -116.75881 | 14912 ft | 368 kts | 276° |
| 2026-04-21 11:21 | 33.91801 | -116.78924 | 14916 ft | 371 kts | 276° |
| 2026-04-21 11:22 | 33.92280 | -116.81983 | 14915 ft | 370 kts | 276° |
| 2026-04-21 11:22 | 33.92763 | -116.85041 | 14587 ft | 373 kts | 276° |
| 2026-04-21 11:22 | 33.93247 | -116.88095 | 14166 ft | 368 kts | 276° |
| 2026-04-21 11:22 | 33.93722 | -116.91110 | 13701 ft | 364 kts | 276° |
| 2026-04-21 11:23 | 33.94186 | -116.94083 | 13227 ft | 359 kts | 276° |
| 2026-04-21 11:23 | 33.94681 | -116.97020 | 12783 ft | 358 kts | 280° |
| 2026-04-21 11:23 | 33.95334 | -116.99925 | 12360 ft | 359 kts | 281° |
| 2026-04-21 11:23 | 33.95981 | -117.02792 | 11915 ft | 358 kts | 281° |
| 2026-04-21 11:24 | 33.96618 | -117.05678 | 11477 ft | 354 kts | 281° |
| 2026-04-21 11:24 | 33.97244 | -117.08527 | 11049 ft | 351 kts | 281° |
| 2026-04-21 11:24 | 33.97866 | -117.11339 | 10968 ft | 344 kts | 281° |
| 2026-04-21 11:24 | 33.98482 | -117.14158 | 10964 ft | 352 kts | 281° |
| 2026-04-21 11:25 | 33.99184 | -117.17372 | 10978 ft | 351 kts | 281° |
| 2026-04-21 11:25 | 34.00044 | -117.21118 | 11013 ft | 349 kts | 282° |
| 2026-04-21 11:25 | 34.01501 | -117.26743 | 11024 ft | 352 kts | 282° |
| 2026-04-21 11:25 | 34.02382 | -117.30259 | 11023 ft | 351 kts | 282° |
| 2026-04-21 11:26 | 34.03094 | -117.33078 | 11023 ft | 352 kts | 282° |
| 2026-04-21 11:26 | 34.03810 | -117.35907 | 10998 ft | 354 kts | 282° |
| 2026-04-21 11:26 | 34.04531 | -117.38756 | 10864 ft | 354 kts | 282° |
| 2026-04-21 11:26 | 34.05239 | -117.41556 | 10661 ft | 341 kts | 282° |
| 2026-04-21 11:27 | 34.05912 | -117.44204 | 10450 ft | 318 kts | 282° |
| 2026-04-21 11:27 | 34.06532 | -117.46670 | 10240 ft | 297 kts | 281° |
| 2026-04-21 11:27 | 34.07237 | -117.49487 | 10016 ft | 280 kts | 281° |
| 2026-04-21 11:27 | 34.07952 | -117.54075 | 9995 ft | 280 kts | 276° |
| 2026-04-21 11:28 | 34.08346 | -117.56422 | 9997 ft | 283 kts | 276° |
| 2026-04-21 11:28 | 34.08718 | -117.58754 | 10001 ft | 284 kts | 275° |
| 2026-04-21 11:28 | 34.09077 | -117.61109 | 10002 ft | 286 kts | 275° |
| 2026-04-21 11:28 | 34.09439 | -117.63465 | 10003 ft | 286 kts | 275° |
| 2026-04-21 11:29 | 34.09806 | -117.65818 | 10006 ft | 285 kts | 275° |
| 2026-04-21 11:29 | 34.10167 | -117.68143 | 10006 ft | 285 kts | 275° |
| 2026-04-21 11:29 | 34.10529 | -117.70487 | 10005 ft | 284 kts | 275° |
| 2026-04-21 11:29 | 34.10891 | -117.72836 | 10005 ft | 284 kts | 275° |
| 2026-04-21 11:30 | 34.11251 | -117.75174 | 9982 ft | 283 kts | 275° |
| 2026-04-21 11:30 | 34.11612 | -117.77516 | 9981 ft | 283 kts | 275° |
| 2026-04-21 11:30 | 34.11970 | -117.79844 | 9981 ft | 282 kts | 275° |
| 2026-04-21 11:30 | 34.12328 | -117.82177 | 9981 ft | 282 kts | 275° |
| 2026-04-21 11:31 | 34.12685 | -117.84505 | 9984 ft | 282 kts | 275° |
| 2026-04-21 11:31 | 34.13044 | -117.86861 | 9786 ft | 289 kts | 275° |
| 2026-04-21 11:31 | 34.13403 | -117.89246 | 9474 ft | 287 kts | 275° |
| 2026-04-21 11:31 | 34.13757 | -117.91596 | 9153 ft | 282 kts | 275° |
| 2026-04-21 11:32 | 34.14105 | -117.93912 | 8834 ft | 279 kts | 275° |
| 2026-04-21 11:32 | 34.14448 | -117.96204 | 8530 ft | 277 kts | 275° |
| 2026-04-21 11:32 | 34.14790 | -117.98495 | 8206 ft | 278 kts | 276° |
| 2026-04-21 11:32 | 34.15150 | -118.00784 | 7981 ft | 276 kts | 278° |
| 2026-04-21 11:33 | 34.15613 | -118.02990 | 7982 ft | 274 kts | 279° |
| 2026-04-21 11:33 | 34.16079 | -118.05236 | 7984 ft | 278 kts | 279° |
| 2026-04-21 11:33 | 34.16551 | -118.07503 | 7982 ft | 279 kts | 279° |
| 2026-04-21 11:33 | 34.17198 | -118.09717 | 7967 ft | 285 kts | 296° |
| 2026-04-21 11:34 | 34.18393 | -118.11509 | 7969 ft | 289 kts | 308° |
| 2026-04-21 11:34 | 34.19803 | -118.13235 | 7996 ft | 289 kts | 311° |
| 2026-04-21 11:34 | 34.21284 | -118.14982 | 7995 ft | 290 kts | 311° |
| 2026-04-21 11:34 | 34.22711 | -118.16655 | 7998 ft | 290 kts | 311° |
| 2026-04-21 11:35 | 34.24161 | -118.18352 | 8001 ft | 290 kts | 311° |
| 2026-04-21 11:35 | 34.25620 | -118.20031 | 8023 ft | 289 kts | 312° |
| 2026-04-21 11:35 | 34.27085 | -118.21721 | 8003 ft | 290 kts | 310° |
| 2026-04-21 11:35 | 34.28518 | -118.23442 | 7978 ft | 291 kts | 306° |
| 2026-04-21 11:36 | 34.29638 | -118.25432 | 8029 ft | 276 kts | 295° |
| 2026-04-21 11:36 | 34.30491 | -118.27440 | 7988 ft | 259 kts | 288° |
| 2026-04-21 11:36 | 34.31212 | -118.29370 | 7823 ft | 247 kts | 288° |
| 2026-04-21 11:36 | 34.31925 | -118.31229 | 7577 ft | 241 kts | 289° |
| 2026-04-21 11:37 | 34.32623 | -118.33056 | 7335 ft | 238 kts | 289° |
| 2026-04-21 11:37 | 34.33308 | -118.34868 | 7087 ft | 236 kts | 288° |
| 2026-04-21 11:37 | 34.33980 | -118.36669 | 6831 ft | 235 kts | 288° |
| 2026-04-21 11:37 | 34.34630 | -118.38418 | 6617 ft | 230 kts | 291° |
| 2026-04-21 11:38 | 34.35627 | -118.39897 | 6485 ft | 224 kts | 323° |
| 2026-04-21 11:38 | 34.37006 | -118.40863 | 6159 ft | 237 kts | 327° |
| 2026-04-21 11:38 | 34.38544 | -118.41703 | 6005 ft | 242 kts | 335° |
| 2026-04-21 11:38 | 34.40117 | -118.42398 | 5942 ft | 243 kts | 337° |
| 2026-04-21 11:39 | 34.41701 | -118.43107 | 5720 ft | 236 kts | 332° |
| 2026-04-21 11:39 | 34.42845 | -118.44374 | 5466 ft | 216 kts | 292° |
| 2026-04-21 11:39 | 34.43025 | -118.46064 | 5250 ft | 197 kts | 253° |
| 2026-04-21 11:39 | 34.42288 | -118.47334 | 5045 ft | 183 kts | 214° |
| 2026-04-21 11:40 | 34.41151 | -118.47933 | 4848 ft | 177 kts | 194° |
| 2026-04-21 11:40 | 34.39957 | -118.48316 | 4650 ft | 178 kts | 195° |
| 2026-04-21 11:40 | 34.38768 | -118.48760 | 4449 ft | 179 kts | 197° |
| 2026-04-21 11:40 | 34.37573 | -118.49229 | 4253 ft | 182 kts | 197° |
| 2026-04-21 11:41 | 34.36374 | -118.49698 | 4075 ft | 183 kts | 197° |
| 2026-04-21 11:41 | 34.35170 | -118.50164 | 3828 ft | 182 kts | 194° |
| 2026-04-21 11:41 | 34.33931 | -118.50259 | 3703 ft | 179 kts | 176° |
| 2026-04-21 11:41 | 34.32690 | -118.50154 | 3404 ft | 182 kts | 176° |
| 2026-04-21 11:42 | 34.31432 | -118.50057 | 3115 ft | 179 kts | 175° |
| 2026-04-21 11:42 | 34.30274 | -118.49918 | 2839 ft | 155 kts | 174° |
| 2026-04-21 11:42 | 34.29242 | -118.49818 | 2588 ft | 143 kts | 176° |
| 2026-04-21 11:42 | 34.28262 | -118.49732 | 2369 ft | 141 kts | 174° |
| 2026-04-21 11:43 | 34.27372 | -118.49639 | 2203 ft | 122 kts | 173° |
| 2026-04-21 11:43 | 34.26532 | -118.49571 | 1988 ft | 120 kts | 175° |
| 2026-04-21 11:43 | 34.25700 | -118.49491 | 1821 ft | 121 kts | 174° |
| 2026-04-21 11:43 | 34.24836 | -118.49413 | 1650 ft | 126 kts | 175° |
| 2026-04-21 11:44 | 34.23954 | -118.49321 | 1433 ft | 128 kts | 174° |
| 2026-04-21 11:44 | 34.23068 | -118.49235 | 1189 ft | 126 kts | 175° |
| 2026-04-21 11:44 | 34.22204 | -118.49153 | 966 ft | 123 kts | 175° |
| 2026-04-21 11:44 | 34.21372 | -118.49076 | 807 ft | 114 kts | 175° |
| 2026-04-21 11:45 | 34.20693 | -118.49012 | 780 ft | 75 kts | 175° |
| 2026-04-21 11:45 | 34.20344 | -118.48980 | 764 ft | 24 kts | 175° |
| 2026-04-21 11:45 | 34.20265 | -118.49014 | 762 ft | 13 kts | 249° |
| 2026-04-21 11:45 | 34.20322 | -118.49091 | 763 ft | 17 kts | 355° |
| 2026-04-21 11:46 | 34.20442 | -118.49105 | 769 ft | 17 kts | 354° |
| 2026-04-21 11:46 | 34.20561 | -118.49115 | 774 ft | 18 kts | 355° |
| 2026-04-21 11:46 | 34.20690 | -118.49127 | 779 ft | 19 kts | 355° |
| 2026-04-21 11:46 | 34.20823 | -118.49139 | 785 ft | 19 kts | 356° |
| 2026-04-21 11:47 | 34.20964 | -118.49156 | 786 ft | 22 kts | 353° |
| 2026-04-21 11:47 | 34.21128 | -118.49171 | 788 ft | 25 kts | 356° |
| 2026-04-21 11:47 | 34.21304 | -118.49186 | 790 ft | 27 kts | 355° |
| 2026-04-21 11:47 | 34.21470 | -118.49202 | 790 ft | 20 kts | 355° |
| 2026-04-21 11:48 | 34.21607 | -118.49223 | 796 ft | 20 kts | 356° |
| 2026-04-21 11:48 | 34.21676 | -118.49246 | 798 ft | 6 kts | 291° |
| 2026-04-21 11:48 | 34.21687 | -118.49332 | 798 ft | 14 kts | 280° |
| 2026-04-21 11:48 | 34.21703 | -118.49454 | 800 ft | 8 kts | 278° |